Time;durP1;ratioP1;P1;durP2;ratioP2;P2;SDS_P1;SDS_P2;PMS_P1;PMS_P2;Temp;Humidity;BMP_temperature;BMP_pressure;BME280_temperature;BME280_humidity;BME280_pressure;Samples;Min_cycle;Max_cycle;Signal;HPM_P1;HPM_P2
2021/09/08 00:00:26;;;;;;;8.32;5.10;;;;;;;14.90;49.24;94586.78;4986589;28;20072;-74
2021/09/08 00:02:52;;;;;;;6.35;4.03;;;;;;;14.62;48.90;94594.41;4987743;28;20161;-74
2021/09/08 00:05:17;;;;;;;5.93;4.40;;;;;;;14.33;49.20;94567.53;4988503;28;20459;-74
2021/09/08 00:07:42;;;;;;;6.88;4.40;;;;;;;14.52;49.21;94590.16;4987975;28;20034;-75
2021/09/08 00:10:08;;;;;;;9.50;4.53;;;;;;;14.26;49.44;94573.38;4985874;28;20037;-74
2021/09/08 00:12:35;;;;;;;6.82;3.83;;;;;;;14.55;48.46;94570.03;4981933;28;21443;-74
2021/09/08 00:15:01;;;;;;;6.40;4.28;;;;;;;14.73;48.52;94586.81;4988843;28;20034;-74
2021/09/08 00:17:27;;;;;;;9.43;4.43;;;;;;;14.56;48.37;94577.75;4986699;28;20554;-75
2021/09/08 00:19:53;;;;;;;5.10;3.58;;;;;;;14.73;48.17;94582.25;4987204;28;20034;-75
2021/09/08 00:22:18;;;;;;;5.80;3.58;;;;;;;14.64;48.36;94567.31;4990146;28;20499;-76
2021/09/08 00:24:43;;;;;;;5.50;3.72;;;;;;;14.89;47.87;94583.31;4990966;28;20022;-74
2021/09/08 00:27:09;;;;;;;7.20;4.38;;;;;;;14.84;47.75;94577.34;4985590;28;20069;-76
2021/09/08 00:29:35;;;;;;;4.68;3.50;;;;;;;14.96;47.46;94582.81;4985085;28;20056;-74
2021/09/08 00:32:01;;;;;;;5.95;4.05;;;;;;;14.90;47.43;94581.41;4988445;28;20480;-74
2021/09/08 00:34:27;;;;;;;5.95;4.07;;;;;;;14.82;47.49;94572.28;4981819;28;20394;-76
2021/09/08 00:36:52;;;;;;;4.47;3.90;;;;;;;14.85;47.27;94568.22;4989512;28;20049;-74
2021/09/08 00:39:18;;;;;;;4.35;3.63;;;;;;;14.91;47.42;94561.56;4990562;28;20029;-74
2021/09/08 00:41:43;;;;;;;5.18;3.45;;;;;;;15.09;46.35;94581.03;4986739;28;20034;-74
2021/09/08 00:44:11;;;;;;;9.80;3.63;;;;;;;14.97;46.76;94579.78;4987249;28;20050;-74
2021/09/08 00:46:39;;;;;;;5.50;3.38;;;;;;;15.31;45.98;94581.53;4987245;28;20135;-74
2021/09/08 00:49:04;;;;;;;9.30;3.88;;;;;;;15.28;45.43;94576.81;4988288;28;23051;-74
2021/09/08 00:51:30;;;;;;;4.70;3.42;;;;;;;15.35;45.05;94579.75;4988076;28;20037;-74
2021/09/08 00:53:57;;;;;;;5.88;3.20;;;;;;;15.49;44.80;94565.38;4989802;28;20488;-74
2021/09/08 00:56:25;;;;;;;5.90;3.47;;;;;;;15.24;45.21;94559.81;4989584;28;20058;-74
2021/09/08 00:58:50;;;;;;;4.45;4.05;;;;;;;15.40;45.27;94573.44;4987487;28;20096;-74
2021/09/08 01:01:16;;;;;;;6.82;3.33;;;;;;;15.28;45.36;94563.41;4986018;28;20444;-75
2021/09/08 01:03:41;;;;;;;4.60;3.50;;;;;;;15.08;45.55;94556.13;4983411;28;20033;-74
2021/09/08 01:06:06;;;;;;;5.43;4.30;;;;;;;15.06;45.74;94573.63;4987495;28;20599;-74
2021/09/08 01:08:32;;;;;;;9.15;3.90;;;;;;;15.03;45.99;94564.34;4989863;28;20450;-75
2021/09/08 01:10:58;;;;;;;4.78;3.63;;;;;;;15.12;45.64;94562.41;4987368;28;20100;-74
2021/09/08 01:13:24;;;;;;;6.13;3.60;;;;;;;15.31;44.93;94561.97;4985842;28;20042;-74
2021/09/08 01:15:57;;;;;;;10.05;4.57;;;;;;;15.38;45.93;94581.03;4987774;28;20500;-74
2021/09/08 01:18:23;;;;;;;6.38;4.78;;;;;;;15.28;46.40;94579.50;4988216;28;20036;-74
2021/09/08 01:20:49;;;;;;;6.53;5.20;;;;;;;14.94;47.38;94577.78;4989871;28;20045;-74
2021/09/08 01:23:14;;;;;;;11.80;5.60;;;;;;;14.89;47.66;94577.16;4986726;28;20042;-74
2021/09/08 01:25:39;;;;;;;5.70;5.25;;;;;;;14.44;49.59;94587.50;4987350;28;20672;-74
2021/09/08 01:28:05;;;;;;;9.27;6.28;;;;;;;14.07;50.33;94583.63;4988263;28;20561;-73
2021/09/08 01:30:30;;;;;;;6.43;5.78;;;;;;;14.26;50.32;94589.44;4987506;28;20034;-74
2021/09/08 01:32:56;;;;;;;7.95;5.85;;;;;;;14.33;50.33;94578.22;4986860;28;20037;-76
2021/09/08 01:35:22;;;;;;;7.10;5.68;;;;;;;14.19;50.38;94586.44;4986828;28;20095;-74
2021/09/08 01:37:49;;;;;;;6.60;6.00;;;;;;;14.30;49.92;94568.97;4987122;28;20093;-73
2021/09/08 01:40:16;;;;;;;6.88;5.90;;;;;;;14.62;49.85;94586.38;4987561;28;20377;-74
2021/09/08 01:42:43;;;;;;;12.00;6.47;;;;;;;14.49;50.17;94593.47;4984642;28;20045;-75
2021/09/08 01:45:12;;;;;;;6.97;6.15;;;;;;;14.50;50.16;94589.69;4989026;28;20038;-74
2021/09/08 01:47:39;;;;;;;7.35;6.22;;;;;;;14.37;50.36;94596.03;4994038;28;20057;-74
2021/09/08 01:50:05;;;;;;;9.93;5.70;;;;;;;14.17;50.79;94585.97;4990151;28;20034;-74
2021/09/08 01:52:31;;;;;;;7.18;6.47;;;;;;;14.31;50.45;94581.22;4984742;28;20042;-74
2021/09/08 01:54:56;;;;;;;8.13;6.50;;;;;;;14.35;50.27;94576.81;4984205;28;20041;-74
2021/09/08 01:57:21;;;;;;;7.72;5.25;;;;;;;14.40;50.51;94581.22;4986916;28;20109;-74
2021/09/08 01:59:47;;;;;;;6.65;5.45;;;;;;;14.67;50.17;94585.44;4986381;28;20069;-74
2021/09/08 02:02:12;;;;;;;6.07;5.07;;;;;;;14.54;50.11;94569.25;4986429;28;20038;-74
2021/09/08 02:04:37;;;;;;;6.07;5.47;;;;;;;14.72;49.99;94595.94;4986199;28;20038;-75
2021/09/08 02:07:04;;;;;;;6.75;5.47;;;;;;;14.75;49.97;94596.13;4985804;28;20609;-74
2021/09/08 02:09:30;;;;;;;5.20;4.70;;;;;;;14.73;50.10;94586.81;4985994;28;20081;-74
2021/09/08 02:11:56;;;;;;;8.52;5.85;;;;;;;14.60;49.86;94567.97;4989760;28;20046;-74
2021/09/08 02:14:21;;;;;;;9.73;5.85;;;;;;;14.86;49.51;94586.59;4987450;28;20844;-75
2021/09/08 02:16:47;;;;;;;7.60;6.82;;;;;;;14.64;49.81;94586.06;4985796;28;20042;-74
2021/09/08 02:19:12;;;;;;;6.15;5.55;;;;;;;14.87;49.49;94576.69;4983770;28;20478;-74
2021/09/08 02:21:37;;;;;;;8.10;5.28;;;;;;;14.91;48.95;94564.25;4988749;28;20030;-75
2021/09/08 02:24:03;;;;;;;8.35;5.65;;;;;;;14.98;48.83;94580.59;4985801;28;20129;-74
2021/09/08 02:26:29;;;;;;;6.00;5.25;;;;;;;14.99;48.79;94558.84;4984793;28;20521;-75
2021/09/08 02:28:54;;;;;;;7.10;6.05;;;;;;;15.15;48.59;94560.97;4987159;28;20144;-75
2021/09/08 02:31:21;;;;;;;9.50;6.28;;;;;;;14.93;49.17;94564.69;4988403;28;20042;-75
2021/09/08 02:33:46;;;;;;;8.80;6.15;;;;;;;15.03;48.62;94562.44;4983452;28;20514;-74
2021/09/08 02:36:12;;;;;;;6.93;5.95;;;;;;;14.74;49.37;94580.38;4989339;28;20069;-74
2021/09/08 02:38:37;;;;;;;6.85;5.95;;;;;;;14.79;49.48;94575.63;4987427;28;20408;-74
2021/09/08 02:41:06;;;;;;;7.05;6.35;;;;;;;14.97;49.24;94576.31;4987852;28;20042;-74
2021/09/08 02:43:33;;;;;;;6.75;6.15;;;;;;;15.09;48.87;94572.97;4981118;28;20041;-74
2021/09/08 02:46:01;;;;;;;8.68;7.72;;;;;;;14.99;48.88;94552.69;4984858;28;20076;-74
2021/09/08 02:48:27;;;;;;;7.20;5.97;;;;;;;15.03;48.71;94561.66;4985268;28;20025;-74
2021/09/08 02:50:52;;;;;;;8.25;6.50;;;;;;;15.27;48.53;94572.56;4982599;28;20038;-74
2021/09/08 02:53:18;;;;;;;10.35;6.40;;;;;;;14.92;48.95;94557.75;4989578;28;20038;-74
2021/09/08 02:55:43;;;;;;;12.57;6.78;;;;;;;15.00;48.73;94554.28;4981203;28;20038;-74
2021/09/08 02:58:08;;;;;;;7.55;6.85;;;;;;;15.24;48.48;94578.59;4983306;28;20043;-74
2021/09/08 03:00:34;;;;;;;6.80;5.85;;;;;;;15.10;48.65;94548.56;4985929;28;20045;-75
2021/09/08 03:02:59;;;;;;;9.30;6.50;;;;;;;15.34;48.58;94572.84;4986500;28;20456;-74
2021/09/08 03:05:25;;;;;;;8.10;6.13;;;;;;;15.28;48.13;94576.03;4991938;28;20038;-74
2021/09/08 03:07:50;;;;;;;10.05;5.50;;;;;;;15.17;48.67;94564.88;4988486;28;20026;-76
2021/09/08 03:10:15;;;;;;;6.18;5.50;;;;;;;15.06;48.66;94542.25;4983811;28;21154;-76
2021/09/08 03:12:41;;;;;;;6.50;5.40;;;;;;;15.14;48.68;94554.03;4984248;28;20018;-77
2021/09/08 03:15:07;;;;;;;8.30;5.28;;;;;;;15.17;48.73;94554.19;4987713;28;20038;-76
2021/09/08 03:17:35;;;;;;;6.20;5.25;;;;;;;15.21;48.73;94563.13;4983439;28;20042;-75
2021/09/08 03:20:00;;;;;;;6.82;5.38;;;;;;;15.10;48.75;94553.91;4983700;28;20149;-76
2021/09/08 03:22:25;;;;;;;6.85;5.70;;;;;;;15.25;48.53;94558.72;4983429;28;20776;-77
2021/09/08 03:24:51;;;;;;;6.95;6.13;;;;;;;15.33;48.23;94560.56;4988039;28;20038;-76
2021/09/08 03:27:16;;;;;;;9.13;5.90;;;;;;;15.44;48.07;94571.72;4983885;28;20017;-76
2021/09/08 03:29:41;;;;;;;6.20;5.55;;;;;;;15.32;48.34;94558.97;4986209;28;20065;-77
2021/09/08 03:32:07;;;;;;;8.82;5.38;;;;;;;15.36;48.48;94572.50;4983837;28;20401;-76
2021/09/08 03:34:32;;;;;;;7.82;6.22;;;;;;;15.26;48.88;94557.59;4989917;28;20038;-76
2021/09/08 03:36:58;;;;;;;8.98;6.63;;;;;;;15.37;48.19;94563.38;4987725;28;20034;-76
2021/09/08 03:39:23;;;;;;;7.32;5.93;;;;;;;15.18;48.55;94561.09;4985563;28;20493;-76
2021/09/08 03:41:48;;;;;;;7.38;5.63;;;;;;;15.32;48.08;94564.34;4985678;28;20038;-76
2021/09/08 03:44:14;;;;;;;8.00;5.90;;;;;;;15.17;48.46;94559.53;4984966;28;20046;-75
2021/09/08 03:46:39;;;;;;;8.43;6.10;;;;;;;15.05;48.72;94559.44;4984037;28;20548;-75
2021/09/08 03:49:05;;;;;;;6.80;6.15;;;;;;;15.06;49.23;94574.41;4983270;28;20324;-75
2021/09/08 03:51:30;;;;;;;6.15;5.55;;;;;;;14.94;49.56;94576.97;4985819;28;20192;-76
2021/09/08 03:53:59;;;;;;;9.20;5.63;;;;;;;15.07;49.06;94557.22;4984260;28;20053;-75
2021/09/08 03:56:25;;;;;;;8.88;5.70;;;;;;;15.18;49.10;94577.19;4987193;28;20464;-75
2021/09/08 03:58:54;;;;;;;7.50;5.20;;;;;;;15.16;49.08;94574.03;4981773;28;20117;-76
2021/09/08 04:01:19;;;;;;;9.57;5.80;;;;;;;14.85;49.65;94565.53;4985016;28;20038;-76
2021/09/08 04:03:49;;;;;;;9.65;5.88;;;;;;;14.75;50.03;94557.84;4984024;28;20393;-74
2021/09/08 04:06:15;;;;;;;6.78;6.07;;;;;;;14.71;50.38;94581.81;4986029;28;20057;-75
2021/09/08 04:08:40;;;;;;;7.18;6.35;;;;;;;14.30;50.50;94536.84;4986509;28;20375;-76
2021/09/08 04:11:05;;;;;;;8.30;6.22;;;;;;;14.74;50.29;94572.34;4983814;28;20516;-76
2021/09/08 04:13:31;;;;;;;6.30;5.70;;;;;;;14.78;49.90;94557.19;4984577;28;20556;-76
2021/09/08 04:15:57;;;;;;;8.30;6.43;;;;;;;14.82;50.15;94561.59;4984728;28;20582;-76
2021/09/08 04:18:23;;;;;;;7.85;6.18;;;;;;;14.89;50.14;94575.28;4984305;28;20029;-76
2021/09/08 04:20:48;;;;;;;8.30;5.70;;;;;;;15.14;49.62;94576.28;4982281;28;20636;-76
2021/09/08 04:23:13;;;;;;;8.30;5.75;;;;;;;14.98;49.36;94556.47;4983117;28;20073;-77
2021/09/08 04:25:40;;;;;;;10.13;6.25;;;;;;;15.07;49.57;94570.63;4982816;28;20034;-76
2021/09/08 04:28:05;;;;;;;8.38;5.72;;;;;;;15.10;49.15;94559.28;4985642;28;20504;-75
2021/09/08 04:30:31;;;;;;;9.18;5.80;;;;;;;14.77;49.93;94558.28;4981463;28;20041;-76
2021/09/08 04:32:56;;;;;;;14.02;6.50;;;;;;;14.79;50.39;94572.16;4983775;28;20052;-77
2021/09/08 04:35:21;;;;;;;7.10;6.13;;;;;;;14.90;50.17;94574.16;4984677;28;20546;-76
2021/09/08 04:37:47;;;;;;;10.45;6.88;;;;;;;14.94;49.76;94571.63;4988178;28;20038;-76
2021/09/08 04:40:13;;;;;;;14.55;6.53;;;;;;;14.92;49.77;94552.41;4985702;28;20513;-75
2021/09/08 04:42:38;;;;;;;9.18;6.75;;;;;;;14.88;49.91;94548.81;4995438;28;20026;-75
2021/09/08 04:45:04;;;;;;;8.35;6.63;;;;;;;14.97;49.82;94561.06;4988700;28;20052;-76
2021/09/08 04:47:30;;;;;;;8.35;6.85;;;;;;;14.99;50.00;94571.44;4989800;28;20038;-76
2021/09/08 04:49:55;;;;;;;7.65;6.38;;;;;;;15.03;49.68;94575.84;4989352;28;20046;-77
2021/09/08 04:52:20;;;;;;;8.70;6.68;;;;;;;15.00;49.61;94578.38;4987801;28;20042;-74
2021/09/08 04:54:46;;;;;;;7.50;6.55;;;;;;;14.92;49.88;94579.19;4986817;28;20977;-76
2021/09/08 04:57:11;;;;;;;10.13;7.05;;;;;;;14.93;49.79;94560.13;4988972;28;20499;-76
2021/09/08 04:59:37;;;;;;;8.10;5.75;;;;;;;14.84;50.19;94566.63;4987810;28;20529;-75
2021/09/08 05:02:02;;;;;;;8.63;6.65;;;;;;;14.75;50.33;94572.03;4986358;28;20046;-76
2021/09/08 05:04:27;;;;;;;10.43;6.80;;;;;;;14.68;50.25;94568.25;4987319;28;20132;-77
2021/09/08 05:06:53;;;;;;;7.80;6.60;;;;;;;14.66;50.12;94565.91;4985935;28;20027;-76
2021/09/08 05:09:18;;;;;;;9.23;6.47;;;;;;;14.62;50.27;94581.03;4987997;28;20018;-76
2021/09/08 05:11:44;;;;;;;11.73;6.50;;;;;;;14.50;50.80;94570.97;4984766;28;20045;-76
2021/09/08 05:14:09;;;;;;;8.93;6.90;;;;;;;14.68;50.59;94589.66;4989390;28;20141;-76
2021/09/08 05:16:35;;;;;;;13.13;7.15;;;;;;;14.47;51.00;94576.19;4989351;28;20045;-76
2021/09/08 05:19:00;;;;;;;12.43;6.85;;;;;;;14.60;51.00;94578.69;4986892;28;20385;-77
2021/09/08 05:21:26;;;;;;;12.52;7.13;;;;;;;14.39;51.42;94572.41;4988264;28;20036;-76
2021/09/08 05:23:51;;;;;;;9.05;7.03;;;;;;;14.48;51.82;94586.53;4988234;28;20038;-76
2021/09/08 05:26:16;;;;;;;11.05;7.80;;;;;;;14.30;52.02;94585.00;4988577;28;20155;-76
2021/09/08 05:28:42;;;;;;;11.40;6.80;;;;;;;14.12;52.34;94594.16;4988093;28;20038;-76
2021/09/08 05:31:07;;;;;;;9.27;6.70;;;;;;;14.05;52.63;94573.22;4987954;28;20041;-76
2021/09/08 05:33:33;;;;;;;9.48;6.18;;;;;;;14.07;52.31;94575.59;4986206;28;20501;-76
2021/09/08 05:35:59;;;;;;;15.57;7.53;;;;;;;13.89;52.85;94574.81;4987801;28;20041;-76
2021/09/08 05:38:24;;;;;;;13.27;6.90;;;;;;;13.82;53.50;94585.19;4987040;28;20040;-76
2021/09/08 05:40:50;;;;;;;14.38;6.30;;;;;;;13.75;53.96;94564.28;4987248;28;20030;-75
2021/09/08 05:43:15;;;;;;;9.50;6.50;;;;;;;13.68;54.06;94589.91;4986339;28;20131;-75
2021/09/08 05:45:41;;;;;;;8.48;5.38;;;;;;;13.97;53.34;94581.28;4986396;28;20404;-75
2021/09/08 05:48:06;;;;;;;10.23;5.85;;;;;;;14.18;53.00;94587.53;4989095;28;20448;-76
2021/09/08 05:50:32;;;;;;;9.77;5.03;;;;;;;14.27;52.32;94574.94;4985816;28;20061;-76
2021/09/08 05:52:57;;;;;;;11.88;5.13;;;;;;;14.31;52.52;94575.88;4989710;28;20057;-76
2021/09/08 05:55:23;;;;;;;7.30;5.20;;;;;;;14.25;52.52;94569.13;4987497;28;20038;-76
2021/09/08 05:57:48;;;;;;;9.32;4.55;;;;;;;13.93;53.08;94556.25;4985176;28;20038;-77
2021/09/08 06:00:14;;;;;;;12.90;4.40;;;;;;;13.88;53.27;94561.78;4988010;28;20034;-77
2021/09/08 06:02:39;;;;;;;8.93;4.53;;;;;;;13.73;53.68;94563.81;4988043;28;20075;-76
2021/09/08 06:05:06;;;;;;;15.02;4.78;;;;;;;13.71;54.19;94571.34;4984643;28;21748;-76
2021/09/08 06:07:31;;;;;;;9.68;4.25;;;;;;;13.84;53.57;94571.53;4985429;28;20046;-76
2021/09/08 06:09:56;;;;;;;6.72;4.50;;;;;;;14.08;53.19;94574.50;4987644;28;20367;-76
2021/09/08 06:12:22;;;;;;;10.57;4.90;;;;;;;14.27;52.82;94564.25;4982946;28;20483;-76
2021/09/08 06:14:47;;;;;;;13.45;5.38;;;;;;;14.13;52.76;94552.94;4986658;28;20475;-75
2021/09/08 06:17:12;;;;;;;11.35;4.88;;;;;;;13.97;53.43;94559.88;4988307;28;20043;-76
2021/09/08 06:19:38;;;;;;;9.38;4.43;;;;;;;13.85;53.71;94565.84;4983613;28;20055;-76
2021/09/08 06:22:04;;;;;;;11.07;5.40;;;;;;;13.67;54.13;94572.28;4988235;28;20540;-76
2021/09/08 06:24:29;;;;;;;6.75;4.38;;;;;;;13.57;54.32;94576.03;4988611;28;20040;-75
2021/09/08 06:26:54;;;;;;;7.07;4.15;;;;;;;13.67;54.51;94570.41;4980196;28;20165;-75
2021/09/08 06:29:20;;;;;;;10.35;5.20;;;;;;;13.65;54.51;94556.56;4984329;28;20041;-76
2021/09/08 06:31:46;;;;;;;10.70;4.40;;;;;;;13.95;54.30;94565.53;4984019;28;20631;-77
2021/09/08 06:34:11;;;;;;;8.10;4.22;;;;;;;14.01;53.80;94574.19;4983599;28;20578;-76
2021/09/08 06:36:37;;;;;;;7.15;4.20;;;;;;;13.61;54.20;94544.16;4986695;28;20366;-76
2021/09/08 06:39:06;;;;;;;12.55;4.80;;;;;;;13.95;53.74;94586.13;4987645;28;20058;-76
2021/09/08 06:41:31;;;;;;;10.65;4.82;;;;;;;13.84;54.28;94568.84;4987646;28;20057;-77
2021/09/08 06:43:56;;;;;;;10.13;4.25;;;;;;;13.98;54.03;94582.84;4981253;28;20033;-76
2021/09/08 06:46:22;;;;;;;11.00;4.75;;;;;;;13.68;54.27;94549.81;4985073;28;20042;-76
2021/09/08 06:48:47;;;;;;;10.68;4.57;;;;;;;13.92;54.00;94579.53;4981452;28;20026;-76
2021/09/08 06:51:13;;;;;;;7.40;4.43;;;;;;;13.84;54.21;94582.22;4984404;28;20617;-76
2021/09/08 06:53:38;;;;;;;6.82;4.45;;;;;;;14.18;53.71;94588.31;4982047;28;20104;-77
2021/09/08 06:56:05;;;;;;;7.90;4.28;;;;;;;14.31;53.29;94596.50;4984657;28;20137;-75
2021/09/08 06:58:31;;;;;;;8.10;4.28;;;;;;;14.03;53.15;94580.03;4984137;28;20062;-75
2021/09/08 07:00:56;;;;;;;8.20;4.72;;;;;;;14.09;53.84;94602.81;4981027;28;20740;-75
2021/09/08 07:03:22;;;;;;;6.30;4.18;;;;;;;14.08;53.70;94599.34;4982497;28;20030;-74
2021/09/08 07:05:47;;;;;;;6.15;3.72;;;;;;;14.21;53.26;94605.66;4983523;28;20068;-75
2021/09/08 07:08:14;;;;;;;8.48;4.03;;;;;;;14.31;52.63;94594.63;4980573;28;20164;-76
2021/09/08 07:10:40;;;;;;;6.35;3.83;;;;;;;14.40;50.84;94589.25;4978715;28;20509;-77
2021/09/08 07:13:06;;;;;;;11.82;4.15;;;;;;;14.68;50.01;94595.03;4979260;28;20041;-76
2021/09/08 07:15:31;;;;;;;8.35;3.13;;;;;;;14.66;48.60;94597.25;4987263;28;20048;-75
2021/09/08 07:17:58;;;;;;;6.10;3.13;;;;;;;14.96;48.69;94607.69;4980580;28;20052;-76
2021/09/08 07:20:23;;;;;;;3.10;2.80;;;;;;;15.16;48.34;94606.19;4984530;28;20054;-76
2021/09/08 07:22:49;;;;;;;5.82;2.63;;;;;;;15.22;46.62;94604.13;4982557;28;20068;-77
2021/09/08 07:25:14;;;;;;;4.82;3.47;;;;;;;15.45;46.66;94608.91;4987006;28;20041;-76
2021/09/08 07:27:40;;;;;;;7.20;2.67;;;;;;;15.45;46.32;94611.59;4983155;28;20341;-75
2021/09/08 07:30:07;;;;;;;3.40;2.40;;;;;;;15.54;45.64;94600.03;4984460;28;20049;-76
2021/09/08 07:32:32;;;;;;;4.00;2.88;;;;;;;15.49;46.28;94614.44;4983206;28;20156;-76
2021/09/08 07:34:58;;;;;;;4.40;2.83;;;;;;;15.57;46.35;94604.75;4984426;28;20461;-76
2021/09/08 07:37:25;;;;;;;6.53;2.47;;;;;;;15.54;46.17;94622.28;4984176;28;20034;-76
2021/09/08 07:39:50;;;;;;;5.20;2.60;;;;;;;15.30;46.41;94633.53;4978337;28;20162;-77
2021/09/08 07:42:16;;;;;;;4.18;2.58;;;;;;;15.55;45.78;94615.03;4984949;28;20146;-76
2021/09/08 07:44:43;;;;;;;3.90;2.05;;;;;;;15.85;45.57;94616.53;4981287;28;20120;-76
2021/09/08 07:47:08;;;;;;;4.40;2.42;;;;;;;15.64;44.60;94608.50;4985195;28;20133;-76
2021/09/08 07:49:34;;;;;;;6.97;2.53;;;;;;;15.86;44.85;94626.16;4981895;28;20402;-77
2021/09/08 07:51:59;;;;;;;3.83;2.42;;;;;;;15.93;45.66;94629.13;4982280;28;20034;-77
2021/09/08 07:54:24;;;;;;;8.52;2.35;;;;;;;15.93;43.98;94618.41;4981784;28;20057;-77
2021/09/08 07:56:50;;;;;;;4.60;2.13;;;;;;;16.09;44.60;94615.88;4983134;28;20158;-77
2021/09/08 07:59:16;;;;;;;3.10;2.10;;;;;;;16.36;45.12;94633.38;4980126;28;20469;-76
2021/09/08 08:01:41;;;;;;;5.13;2.38;;;;;;;16.46;43.66;94627.63;4992041;28;20034;-77
2021/09/08 08:04:09;;;;;;;4.30;2.38;;;;;;;16.27;42.81;94618.13;4981371;28;20412;-78
2021/09/08 08:06:35;;;;;;;5.20;2.35;;;;;;;16.53;43.58;94617.09;4983871;28;20425;-78
2021/09/08 08:09:00;;;;;;;7.88;2.72;;;;;;;16.68;43.57;94622.66;4983738;28;20425;-77
2021/09/08 08:11:26;;;;;;;3.72;1.77;;;;;;;16.77;42.15;94620.66;4986056;28;20529;-76
2021/09/08 08:13:51;;;;;;;4.32;2.40;;;;;;;16.80;42.72;94607.69;4987879;28;20037;-76
2021/09/08 08:16:16;;;;;;;9.13;2.80;;;;;;;16.98;43.08;94625.97;4988058;28;20385;-76
2021/09/08 08:18:42;;;;;;;10.02;2.47;;;;;;;16.88;42.99;94614.84;4989347;28;20034;-77
2021/09/08 08:21:08;;;;;;;4.40;2.17;;;;;;;17.27;42.88;94624.22;4989852;28;20043;-77
2021/09/08 08:23:33;;;;;;;5.47;2.20;;;;;;;17.60;42.51;94624.88;4989398;28;20038;-76
2021/09/08 08:25:59;;;;;;;6.70;2.65;;;;;;;17.54;41.34;94623.56;4984146;28;20030;-76
2021/09/08 08:28:24;;;;;;;3.80;2.20;;;;;;;17.07;40.98;94620.47;4983737;28;20060;-77
2021/09/08 08:30:51;;;;;;;7.03;2.78;;;;;;;17.17;41.31;94617.38;4987913;28;20026;-77
2021/09/08 08:33:17;;;;;;;7.15;1.95;;;;;;;17.24;41.07;94627.59;4982127;28;20081;-77
2021/09/08 08:35:43;;;;;;;6.28;2.40;;;;;;;17.45;41.29;94625.59;4985397;28;20409;-77
2021/09/08 08:38:08;;;;;;;6.30;2.28;;;;;;;17.23;40.35;94601.81;4986528;28;20042;-76
2021/09/08 08:40:34;;;;;;;5.57;2.42;;;;;;;17.01;39.78;94594.97;4986563;28;20176;-76
2021/09/08 08:43:00;;;;;;;2.13;1.60;;;;;;;16.85;40.20;94616.31;4983461;28;20037;-77
2021/09/08 08:45:29;;;;;;;3.92;2.03;;;;;;;16.71;40.63;94621.22;4986649;28;20022;-76
2021/09/08 08:47:56;;;;;;;4.07;1.88;;;;;;;16.58;41.46;94619.59;4989186;28;20539;-78
2021/09/08 08:50:25;;;;;;;7.32;2.05;;;;;;;16.59;41.71;94621.94;4985604;28;20489;-76
2021/09/08 08:52:51;;;;;;;5.93;2.28;;;;;;;16.43;42.25;94596.06;4986419;28;20067;-76
2021/09/08 08:55:17;;;;;;;4.93;2.55;;;;;;;16.52;42.01;94602.91;4986032;28;20627;-77
2021/09/08 08:57:48;;;;;;;6.15;1.83;;;;;;;16.56;42.65;94605.72;4986924;28;20167;-76
2021/09/08 09:00:14;;;;;;;7.00;2.85;;;;;;;16.67;42.58;94596.13;4987324;28;20045;-76
2021/09/08 09:02:45;;;;;;;4.60;2.25;;;;;;;16.77;42.58;94598.38;4985665;28;20119;-76
2021/09/08 09:05:11;;;;;;;5.50;2.53;;;;;;;16.66;42.67;94587.28;4982000;28;20074;-76
2021/09/08 09:07:42;;;;;;;4.88;2.00;;;;;;;16.74;42.45;94594.47;4984259;28;20682;-77
2021/09/08 09:10:14;;;;;;;3.17;1.85;;;;;;;16.68;42.23;94595.00;4987277;28;20046;-76
2021/09/08 09:12:42;;;;;;;7.78;2.40;;;;;;;16.89;42.56;94590.34;4983870;28;20033;-77
2021/09/08 09:15:13;;;;;;;5.38;2.70;;;;;;;16.67;42.12;94583.47;4985910;28;20045;-76
2021/09/08 09:17:39;;;;;;;6.70;2.10;;;;;;;16.82;42.40;94587.41;4980610;28;20645;-76
2021/09/08 09:20:20;;;;;;;9.20;2.45;;;;;;;16.90;42.37;94581.19;4994925;28;20509;-77
2021/09/08 09:22:58;;;;;;;2.83;1.90;;;;;;;16.76;42.05;94580.72;4986257;28;20681;-77
2021/09/08 09:25:29;;;;;;;4.40;1.63;;;;;;;16.56;42.05;94576.19;4982129;28;20069;-77
2021/09/08 09:27:58;;;;;;;5.03;2.95;;;;;;;16.66;42.56;94573.06;4987265;28;20026;-77
2021/09/08 09:30:26;;;;;;;5.55;2.05;;;;;;;16.84;42.06;94566.38;4981742;28;20026;-77
2021/09/08 09:32:54;;;;;;;2.65;1.77;;;;;;;16.99;42.16;94579.16;4985400;28;20068;-77
2021/09/08 09:35:24;;;;;;;3.53;2.15;;;;;;;17.18;42.00;94574.06;4988041;28;20034;-77
2021/09/08 09:37:52;;;;;;;3.88;2.17;;;;;;;17.10;41.51;94536.50;4981784;28;20038;-76
2021/09/08 09:40:26;;;;;;;4.78;2.33;;;;;;;16.99;42.04;94557.66;4985656;28;20378;-76
2021/09/08 09:42:51;;;;;;;5.80;1.90;;;;;;;16.80;41.63;94549.38;4985366;28;20132;-76
2021/09/08 09:45:17;;;;;;;8.68;2.13;;;;;;;16.92;41.93;94538.63;4981198;28;20034;-76
2021/09/08 09:47:45;;;;;;;6.35;1.98;;;;;;;17.35;42.23;94564.19;4984422;28;20320;-77
2021/09/08 09:50:18;;;;;;;4.07;1.88;;;;;;;17.40;41.83;94566.66;4982897;28;20041;-76
2021/09/08 09:52:48;;;;;;;3.22;2.10;;;;;;;17.43;41.45;94549.84;4985642;28;20087;-75
2021/09/08 09:55:15;;;;;;;4.07;2.33;;;;;;;17.51;40.51;94567.75;4984730;28;20476;-76
2021/09/08 09:57:41;;;;;;;2.83;1.80;;;;;;;17.67;38.96;94547.13;4985761;28;20022;-76
2021/09/08 10:00:07;;;;;;;5.13;1.52;;;;;;;17.66;36.39;94559.00;4985470;28;20077;-77
2021/09/08 10:02:33;;;;;;;2.65;1.63;;;;;;;17.62;36.67;94568.88;4982807;28;21259;-77
2021/09/08 10:04:59;;;;;;;5.30;1.67;;;;;;;17.64;36.52;94555.09;4981938;28;20054;-77
2021/09/08 10:07:26;;;;;;;5.22;1.88;;;;;;;17.48;36.72;94542.34;4986799;28;20037;-75
2021/09/08 10:10:00;;;;;;;2.67;1.42;;;;;;;17.65;37.08;94560.09;4983121;28;20030;-76
2021/09/08 10:12:37;;;;;;;2.88;1.92;;;;;;;17.70;37.03;94561.81;4983510;28;20788;-77
2021/09/08 10:15:03;;;;;;;2.75;1.50;;;;;;;17.82;36.79;94556.38;4982200;28;20097;-77
2021/09/08 10:17:41;;;;;;;2.00;1.48;;;;;;;17.94;36.79;94553.69;4984404;28;20034;-76
2021/09/08 10:20:08;;;;;;;4.30;1.80;;;;;;;18.16;35.61;94549.69;4984065;28;20053;-77
2021/09/08 10:22:42;;;;;;;2.30;1.52;;;;;;;18.16;36.57;94555.06;4982068;28;20508;-76
2021/09/08 10:25:10;;;;;;;2.00;1.65;;;;;;;18.41;35.01;94551.94;4985225;28;20088;-76
2021/09/08 10:27:37;;;;;;;4.78;2.13;;;;;;;18.58;35.25;94548.13;4992383;28;20036;-75
2021/09/08 10:30:04;;;;;;;2.42;1.92;;;;;;;18.56;35.18;94533.44;4984580;28;20038;-77
2021/09/08 10:32:29;;;;;;;3.05;1.40;;;;;;;18.46;35.83;94554.38;4982399;28;20045;-76
2021/09/08 10:34:55;;;;;;;5.65;1.50;;;;;;;18.44;35.23;94537.75;4983558;28;20081;-76
2021/09/08 10:37:21;;;;;;;23.83;2.92;;;;;;;18.68;35.70;94555.69;4984281;28;20037;-75
2021/09/08 10:39:47;;;;;;;2.72;1.50;;;;;;;18.60;35.39;94535.09;4988146;28;20579;-76
2021/09/08 10:42:14;;;;;;;3.92;1.85;;;;;;;18.76;35.21;94546.72;4981054;28;20535;-76
2021/09/08 10:44:43;;;;;;;2.35;1.70;;;;;;;18.80;35.38;94552.19;4986246;28;20034;-76
2021/09/08 10:47:08;;;;;;;2.63;1.50;;;;;;;18.80;35.28;94552.97;4981036;28;20771;-76
2021/09/08 10:49:36;;;;;;;3.95;1.60;;;;;;;19.06;36.66;94559.75;4981649;28;20096;-76
2021/09/08 10:52:14;;;;;;;4.30;1.65;;;;;;;19.18;34.55;94548.88;4983874;28;20040;-78
2021/09/08 10:54:58;;;;;;;3.15;2.13;;;;;;;19.15;34.96;94552.28;4982397;28;20042;-76
2021/09/08 10:57:42;;;;;;;2.28;1.38;;;;;;;19.15;35.70;94560.34;4986992;28;20042;-76
2021/09/08 11:00:12;;;;;;;2.10;1.52;;;;;;;19.22;36.54;94555.13;4989762;28;20058;-77
2021/09/08 11:02:44;;;;;;;5.63;1.67;;;;;;;19.17;35.27;94550.00;4982035;28;20528;-76
2021/09/08 11:05:10;;;;;;;6.10;2.10;;;;;;;19.26;35.93;94559.47;4983119;28;20037;-76
2021/09/08 11:07:43;;;;;;;5.00;2.00;;;;;;;19.03;35.81;94538.88;4983224;28;20785;-76
2021/09/08 11:10:11;;;;;;;2.42;1.65;;;;;;;18.84;35.92;94537.66;4985829;28;20048;-77
2021/09/08 11:12:47;;;;;;;3.63;2.00;;;;;;;18.44;36.52;94524.28;4981504;28;20037;-76
2021/09/08 11:15:13;;;;;;;9.85;1.83;;;;;;;18.43;36.35;94546.19;4982286;28;20042;-76
2021/09/08 11:17:40;;;;;;;4.32;1.70;;;;;;;18.32;36.56;94526.28;4979122;28;20066;-76
2021/09/08 11:20:07;;;;;;;2.50;1.73;;;;;;;18.34;37.23;94542.84;4983344;28;20065;-76
2021/09/08 11:22:33;;;;;;;3.83;1.98;;;;;;;18.58;36.43;94537.34;4980404;28;20553;-78
2021/09/08 11:25:06;;;;;;;5.70;1.83;;;;;;;18.27;37.09;94534.59;4980896;28;20133;-76
2021/09/08 11:27:31;;;;;;;4.50;1.80;;;;;;;18.14;37.49;94535.78;4989413;28;20455;-76